createdAt,value
2019-02-19T00:01:46.502Z,3.00
2019-02-19T00:04:15.222Z,3.00
2019-02-19T00:06:50.306Z,3.20
2019-02-19T00:09:19.024Z,3.20
2019-02-19T00:11:48.332Z,3.10
2019-02-19T00:14:23.942Z,3.00
2019-02-19T00:16:52.678Z,3.10
2019-02-19T00:19:21.417Z,2.90
2019-02-19T00:21:59.228Z,3.00
2019-02-19T00:24:27.935Z,3.10
2019-02-19T00:26:56.651Z,3.00
2019-02-19T00:29:31.577Z,3.20
2019-02-19T00:32:00.395Z,3.10
2019-02-19T00:34:42.254Z,3.00
2019-02-19T00:37:11.052Z,3.20
2019-02-19T00:39:39.789Z,3.40
2019-02-19T00:42:15.534Z,3.60
2019-02-19T00:44:44.786Z,3.70
2019-02-19T00:47:13.566Z,3.80
2019-02-19T00:49:48.979Z,3.70
2019-02-19T00:52:17.729Z,3.70
2019-02-19T00:54:59.296Z,3.70
2019-02-19T00:57:34.152Z,3.70
2019-02-19T01:00:09.915Z,3.80
2019-02-19T01:02:38.662Z,3.70
2019-02-19T01:05:07.520Z,3.70
2019-02-19T01:07:43.404Z,3.70
2019-02-19T01:10:12.232Z,3.70
2019-02-19T01:12:41.010Z,3.80
2019-02-19T01:15:16.169Z,3.80
2019-02-19T01:17:45.111Z,3.70
2019-02-19T01:20:13.933Z,3.60
2019-02-19T01:22:49.561Z,3.60
2019-02-19T01:25:18.344Z,3.60
2019-02-19T01:27:47.050Z,3.70
2019-02-19T01:30:22.725Z,3.60
2019-02-19T01:32:51.440Z,3.60
2019-02-19T01:35:32.937Z,3.60
2019-02-19T01:38:01.653Z,3.50
2019-02-19T01:40:30.378Z,3.40
2019-02-19T01:43:06.071Z,3.40
2019-02-19T01:45:34.877Z,3.60
2019-02-19T01:48:03.668Z,3.60
2019-02-19T01:50:39.401Z,3.50
2019-02-19T01:53:08.106Z,3.60
2019-02-19T01:55:49.257Z,3.60
2019-02-19T01:58:24.869Z,3.60
2019-02-19T02:01:00.657Z,3.60
2019-02-19T02:03:29.348Z,3.50
2019-02-19T02:05:58.071Z,3.40
2019-02-19T02:08:33.156Z,3.20
2019-02-19T02:11:01.874Z,3.10
2019-02-19T02:13:30.783Z,3.20
2019-02-19T02:16:06.450Z,3.30
2019-02-19T02:18:35.890Z,3.20
2019-02-19T02:21:04.650Z,3.40
2019-02-19T02:23:40.363Z,3.50
2019-02-19T02:26:09.094Z,3.70
2019-02-19T02:28:37.789Z,3.50
2019-02-19T02:31:12.698Z,3.50
2019-02-19T02:33:41.475Z,3.50
2019-02-19T02:36:23.408Z,3.50
2019-02-19T02:38:52.205Z,3.60
2019-02-19T02:41:20.961Z,3.70
2019-02-19T02:43:56.431Z,3.70
2019-02-19T02:46:25.186Z,3.60
2019-02-19T02:48:53.901Z,3.70
2019-02-19T02:51:29.726Z,3.60
2019-02-19T02:54:04.960Z,3.70
2019-02-19T02:56:46.276Z,3.60
2019-02-19T02:59:14.972Z,3.70
2019-02-19T03:01:43.692Z,3.70
2019-02-19T03:04:19.050Z,3.70
2019-02-19T03:06:52.050Z,3.90
2019-02-19T03:09:20.788Z,3.80
2019-02-19T03:11:56.541Z,3.90
2019-02-19T03:14:25.278Z,3.90
2019-02-19T03:16:54.021Z,4.00
2019-02-19T03:19:31.373Z,4.00
2019-02-19T03:22:00.182Z,4.00
2019-02-19T03:24:28.982Z,4.20
2019-02-19T03:27:04.758Z,4.10
2019-02-19T03:29:33.484Z,4.10
2019-02-19T03:32:02.237Z,4.20
2019-02-19T03:34:37.636Z,4.20
2019-02-19T03:37:13.051Z,4.20
2019-02-19T03:39:48.621Z,4.20
2019-02-19T03:42:17.364Z,4.30
2019-02-19T03:44:46.067Z,4.20
2019-02-19T03:47:21.101Z,4.20
2019-02-19T03:49:49.835Z,4.10
2019-02-19T03:52:19.138Z,4.10
2019-02-19T03:54:54.342Z,4.20
2019-02-19T03:57:30.176Z,4.20
2019-02-19T04:00:05.934Z,4.20
2019-02-19T04:02:34.827Z,4.10
2019-02-19T04:05:03.696Z,4.00
2019-02-19T04:07:39.265Z,4.10
2019-02-19T04:10:08.139Z,4.10
2019-02-19T04:12:36.946Z,4.30
2019-02-19T04:15:12.476Z,4.20
2019-02-19T04:17:41.182Z,4.10
2019-02-19T04:20:10.009Z,4.10
2019-02-19T04:22:45.618Z,4.10
2019-02-19T04:25:14.338Z,4.00
2019-02-19T04:27:43.089Z,4.00
2019-02-19T04:30:17.915Z,3.90
2019-02-19T04:32:46.646Z,4.00
2019-02-19T04:35:15.358Z,3.80
2019-02-19T04:37:50.954Z,3.90
2019-02-19T04:43:43.397Z,3.90
2019-02-19T04:46:12.096Z,4.00
2019-02-19T04:48:40.849Z,4.00
2019-02-19T04:51:16.141Z,4.00
2019-02-19T04:53:44.876Z,3.90
2019-02-19T04:56:13.825Z,3.90
2019-02-19T04:58:49.459Z,4.00
2019-02-19T05:01:18.173Z,3.90
2019-02-19T05:03:46.955Z,3.90
2019-02-19T05:06:22.393Z,4.00
2019-02-19T05:08:51.165Z,4.00
2019-02-19T05:11:19.877Z,3.90
2019-02-19T05:13:55.415Z,4.00
2019-02-19T05:16:24.172Z,4.10
2019-02-19T05:18:52.899Z,4.00
2019-02-19T05:21:28.785Z,4.20
2019-02-19T05:23:58.023Z,4.20
2019-02-19T05:26:26.787Z,4.10
2019-02-19T05:29:02.447Z,4.00
2019-02-19T05:31:31.196Z,3.90
2019-02-19T05:33:59.942Z,4.00
2019-02-19T05:36:35.593Z,3.90
2019-02-19T05:39:05.298Z,3.90
2019-02-19T05:41:53.590Z,3.80
2019-02-19T05:44:22.356Z,3.90
2019-02-19T05:47:17.596Z,3.80
2019-02-19T05:49:46.312Z,3.90
2019-02-19T05:52:15.089Z,3.90
2019-02-19T05:54:50.573Z,3.80
2019-02-19T05:57:19.377Z,3.80
2019-02-19T05:59:48.098Z,3.80
2019-02-19T06:02:25.275Z,3.90
2019-02-19T06:04:54.025Z,3.90
2019-02-19T06:07:22.801Z,3.90
2019-02-19T06:09:57.885Z,4.10
2019-02-19T06:12:26.675Z,4.10
2019-02-19T06:14:55.534Z,4.10
2019-02-19T06:17:31.125Z,4.00
2019-02-19T06:19:59.886Z,4.00
2019-02-19T06:22:28.640Z,4.10
2019-02-19T06:25:03.960Z,4.10
2019-02-19T06:27:32.777Z,4.00
2019-02-19T06:30:01.525Z,4.10
2019-02-19T06:32:38.557Z,4.20
2019-02-19T06:35:07.972Z,4.10
2019-02-19T06:37:37.591Z,4.20
2019-02-19T06:40:13.868Z,4.20
2019-02-19T06:43:02.546Z,4.20
2019-02-19T06:45:38.091Z,4.20
2019-02-19T06:48:06.868Z,4.40
2019-02-19T06:50:35.703Z,4.40
2019-02-19T06:53:10.999Z,4.40
2019-02-19T06:55:39.729Z,4.40
2019-02-19T06:58:08.469Z,4.50
2019-02-19T07:00:43.681Z,4.60
2019-02-19T07:03:18.032Z,4.60
2019-02-19T07:05:53.352Z,4.60
2019-02-19T07:08:22.063Z,4.60
2019-02-19T07:10:50.795Z,4.70
2019-02-19T07:13:27.037Z,4.80
2019-02-19T07:15:55.842Z,4.90
2019-02-19T07:18:24.597Z,5.00
2019-02-19T07:21:00.094Z,5.10
2019-02-19T07:23:28.969Z,5.10
2019-02-19T07:25:57.733Z,5.20
2019-02-19T07:28:32.718Z,5.20
2019-02-19T07:31:01.629Z,5.30
2019-02-19T07:33:30.403Z,5.40
2019-02-19T07:36:06.198Z,5.50
2019-02-19T07:38:35.027Z,5.50
2019-02-19T07:41:03.785Z,5.60
2019-02-19T07:43:45.977Z,5.60
2019-02-19T07:46:21.256Z,5.70
2019-02-19T07:48:57.034Z,5.70
2019-02-19T07:51:25.821Z,5.70
2019-02-19T07:53:54.587Z,5.80
2019-02-19T07:56:30.069Z,5.80
2019-02-19T07:58:58.844Z,5.90
2019-02-19T08:01:27.595Z,6.00
2019-02-19T08:04:02.743Z,6.10
2019-02-19T08:06:31.532Z,6.20
2019-02-19T08:09:00.275Z,6.30
2019-02-19T08:11:37.358Z,6.30
2019-02-19T08:14:06.183Z,6.40
2019-02-19T08:16:34.938Z,6.40
2019-02-19T08:19:10.198Z,6.50
2019-02-19T08:21:39.783Z,6.60
2019-02-19T08:24:08.615Z,6.70
2019-02-19T08:26:43.910Z,6.80
2019-02-19T08:29:14.021Z,6.90
2019-02-19T08:31:42.977Z,7.10
2019-02-19T08:34:18.823Z,7.20
2019-02-19T08:36:47.662Z,7.30
2019-02-19T08:39:16.516Z,7.40
2019-02-19T08:41:52.159Z,7.40
2019-02-19T08:44:40.306Z,7.50
2019-02-19T08:47:16.159Z,7.60
2019-02-19T08:49:44.956Z,7.70
2019-02-19T08:52:13.732Z,7.80
2019-02-19T08:54:49.180Z,7.90
2019-02-19T08:57:17.941Z,8.00
2019-02-19T08:59:46.760Z,8.00
2019-02-19T09:02:21.820Z,8.10
2019-02-19T09:04:50.589Z,8.10
2019-02-19T09:07:19.446Z,8.10
2019-02-19T09:09:54.245Z,8.10
2019-02-19T09:12:22.998Z,8.10
2019-02-19T09:14:51.772Z,8.10
2019-02-19T09:17:26.595Z,8.20
2019-02-19T09:19:55.429Z,8.20
2019-02-19T09:22:25.486Z,8.20
2019-02-19T09:25:02.499Z,8.20
2019-02-19T09:27:31.254Z,8.20
2019-02-19T09:29:59.996Z,8.30
2019-02-19T09:32:35.475Z,8.30
2019-02-19T09:35:04.779Z,8.30
2019-02-19T09:37:33.573Z,8.30
2019-02-19T09:40:08.926Z,8.20
2019-02-19T09:42:44.492Z,8.30
2019-02-19T09:45:26.350Z,8.30
2019-02-19T09:48:01.744Z,8.30
2019-02-19T09:50:37.641Z,8.30
2019-02-19T09:53:06.427Z,8.40
2019-02-19T09:55:35.482Z,8.40
2019-02-19T09:58:10.443Z,8.40
2019-02-19T10:00:39.181Z,8.30
2019-02-19T10:03:08.030Z,8.30
2019-02-19T10:05:43.606Z,8.30
2019-02-19T10:08:12.352Z,8.40
2019-02-19T10:10:41.094Z,8.50
2019-02-19T10:13:16.040Z,8.50
2019-02-19T10:15:44.830Z,8.50
2019-02-19T10:18:13.599Z,8.50
2019-02-19T10:20:49.320Z,8.60
2019-02-19T10:23:18.082Z,8.60
2019-02-19T10:25:46.932Z,8.60
2019-02-19T10:28:21.852Z,8.50
2019-02-19T10:30:50.641Z,8.50
2019-02-19T10:33:20.596Z,8.50
2019-02-19T10:35:56.617Z,8.60
2019-02-19T10:38:25.398Z,8.60
2019-02-19T10:40:54.147Z,8.60
2019-02-19T10:43:29.329Z,8.70
2019-02-19T10:46:18.125Z,8.70
2019-02-19T10:48:53.725Z,8.60
2019-02-19T10:51:22.606Z,8.60
2019-02-19T10:53:51.410Z,8.60
2019-02-19T10:56:27.145Z,8.60
2019-02-19T10:58:56.128Z,8.60
2019-02-19T11:01:24.942Z,8.60
2019-02-19T11:04:00.557Z,8.60
2019-02-19T11:06:29.394Z,8.60
2019-02-19T11:08:58.146Z,8.70
2019-02-19T11:11:33.935Z,8.70
2019-02-19T11:14:02.740Z,8.80
2019-02-19T11:16:31.505Z,8.80
2019-02-19T11:19:07.237Z,8.90
2019-02-19T11:21:35.999Z,8.90
2019-02-19T11:24:04.824Z,8.90
2019-02-19T11:26:40.030Z,9.00
2019-02-19T11:29:08.812Z,9.00
2019-02-19T11:31:37.552Z,9.10
2019-02-19T11:34:12.729Z,9.10
2019-02-19T11:36:42.259Z,9.10
2019-02-19T11:39:12.714Z,9.30
2019-02-19T11:41:48.204Z,9.40
2019-02-19T11:44:16.939Z,9.50
2019-02-19T11:47:05.167Z,9.40
2019-02-19T11:49:33.920Z,9.40
2019-02-19T11:52:02.707Z,9.40
2019-02-19T11:54:37.745Z,9.30
2019-02-19T11:57:06.502Z,9.20
2019-02-19T11:59:35.286Z,9.20
2019-02-19T12:02:11.872Z,9.20
2019-02-19T12:04:40.633Z,9.20
2019-02-19T12:07:09.414Z,9.20
2019-02-19T12:09:45.123Z,9.20
2019-02-19T12:12:13.890Z,9.30
2019-02-19T12:14:42.642Z,9.40
2019-02-19T12:17:17.704Z,9.50
2019-02-19T12:19:46.421Z,9.50
2019-02-19T12:22:15.145Z,9.50
2019-02-19T12:24:50.276Z,9.60
2019-02-19T12:27:18.991Z,9.70
2019-02-19T12:29:47.724Z,9.80
2019-02-19T12:32:23.014Z,9.70
2019-02-19T12:34:51.855Z,9.80
2019-02-19T12:37:21.380Z,9.90
2019-02-19T12:39:56.643Z,9.80
2019-02-19T12:42:25.375Z,9.70
2019-02-19T12:44:54.154Z,9.80
2019-02-19T12:47:36.047Z,9.80
2019-02-19T12:50:11.456Z,9.80
2019-02-19T12:52:46.481Z,9.70
2019-02-19T12:55:15.205Z,9.70
2019-02-19T12:57:44.106Z,9.90
2019-02-19T13:00:20.426Z,9.80
2019-02-19T13:02:49.167Z,9.80
2019-02-19T13:05:17.890Z,9.90
2019-02-19T13:07:52.821Z,9.90
2019-02-19T13:10:21.574Z,9.80
2019-02-19T13:12:50.363Z,9.80
2019-02-19T13:15:26.307Z,9.80
2019-02-19T13:17:55.063Z,9.70
2019-02-19T13:20:23.867Z,9.60
2019-02-19T13:22:59.441Z,9.60
2019-02-19T13:25:28.190Z,9.60
2019-02-19T13:27:56.979Z,9.60
2019-02-19T13:30:32.141Z,9.70
2019-02-19T13:33:00.934Z,9.50
2019-02-19T13:35:29.717Z,9.60
2019-02-19T13:38:05.262Z,9.60
2019-02-19T13:40:34.075Z,9.60
2019-02-19T13:43:02.856Z,9.50
2019-02-19T13:45:39.164Z,9.60
2019-02-19T13:48:20.927Z,9.60
2019-02-19T13:50:56.460Z,9.50
2019-02-19T13:53:41.478Z,9.40
2019-02-19T13:56:16.774Z,9.50
2019-02-19T13:58:45.515Z,9.40
2019-02-19T14:01:14.288Z,9.40
2019-02-19T14:03:50.056Z,9.40
2019-02-19T14:06:18.828Z,9.50
2019-02-19T14:08:47.570Z,9.50
2019-02-19T14:11:23.081Z,9.50
2019-02-19T14:14:09.639Z,9.40
2019-02-19T14:16:52.216Z,9.40
2019-02-19T14:19:46.169Z,9.40
2019-02-19T14:22:40.736Z,9.40
2019-02-19T14:25:27.203Z,9.40
2019-02-19T14:28:20.764Z,9.40
2019-02-19T14:31:16.785Z,9.40
2019-02-19T14:34:18.448Z,9.40
2019-02-19T14:36:59.816Z,9.40
2019-02-19T14:39:53.064Z,9.40
2019-02-19T14:42:50.306Z,9.50
2019-02-19T14:45:54.794Z,9.60
2019-02-19T14:49:00.221Z,9.60
2019-02-19T14:52:08.084Z,9.60
2019-02-19T14:55:04.005Z,9.50
2019-02-19T14:57:57.292Z,9.50
2019-02-19T15:00:51.099Z,9.50
2019-02-19T15:03:55.443Z,9.50
2019-02-19T15:06:39.482Z,9.50
2019-02-19T15:09:36.778Z,9.50
2019-02-19T15:12:15.920Z,9.40
2019-02-19T15:15:04.924Z,9.30
2019-02-19T15:17:49.726Z,9.30
2019-02-19T15:20:43.921Z,9.20
2019-02-19T15:23:47.080Z,9.20
2019-02-19T15:26:39.532Z,9.20
2019-02-19T15:29:26.743Z,9.20
2019-02-19T15:32:21.231Z,9.10
2019-02-19T15:35:05.360Z,9.10
2019-02-19T15:38:11.267Z,9.00
2019-02-19T15:41:02.543Z,9.00
2019-02-19T15:43:42.524Z,9.00
2019-02-19T15:46:21.241Z,9.00
2019-02-19T15:49:25.345Z,8.90
2019-02-19T15:52:11.910Z,8.90
2019-02-19T15:55:12.087Z,8.90
2019-02-19T15:58:04.812Z,8.90
2019-02-19T16:00:50.071Z,8.90
2019-02-19T16:03:37.924Z,8.90
2019-02-19T16:06:23.888Z,8.80
2019-02-19T16:09:09.575Z,8.80
2019-02-19T16:11:56.362Z,8.80
2019-02-19T16:14:31.522Z,8.80
2019-02-19T16:17:24.680Z,8.70
2019-02-19T16:20:02.411Z,8.70
2019-02-19T16:22:44.886Z,8.80
2019-02-19T16:25:35.495Z,8.70
2019-02-19T16:28:31.237Z,8.70
2019-02-19T16:31:19.134Z,8.70
2019-02-19T16:34:19.944Z,8.70
2019-02-19T16:36:53.552Z,8.60
2019-02-19T16:39:49.695Z,8.60
2019-02-19T16:42:44.134Z,8.60
2019-02-19T16:45:37.732Z,8.60
2019-02-19T16:48:38.143Z,8.60
2019-02-19T16:51:27.953Z,8.60
2019-02-19T16:54:14.526Z,8.60
2019-02-19T16:57:07.111Z,8.60
2019-02-19T17:00:00.116Z,8.60
2019-02-19T17:02:47.082Z,8.60
2019-02-19T17:05:24.709Z,8.50
2019-02-19T17:08:09.178Z,8.50
2019-02-19T17:10:47.306Z,8.40
2019-02-19T17:13:40.901Z,8.50
2019-02-19T17:16:36.873Z,8.40
2019-02-19T17:19:18.876Z,8.40
2019-02-19T17:22:09.974Z,8.50
2019-02-19T17:24:53.925Z,8.40
2019-02-19T17:27:31.421Z,8.40
2019-02-19T17:30:22.306Z,8.50
2019-02-19T17:33:00.508Z,8.40
2019-02-19T17:35:53.239Z,8.40
2019-02-19T17:38:39.318Z,8.40
2019-02-19T17:41:21.576Z,8.40
2019-02-19T17:43:58.913Z,8.40
2019-02-19T17:46:48.759Z,8.40
2019-02-19T17:49:40.332Z,8.40
2019-02-19T17:52:43.935Z,8.40
2019-02-19T17:55:30.091Z,8.30
2019-02-19T17:58:30.520Z,8.30
2019-02-19T18:01:06.075Z,8.30
2019-02-19T18:03:50.809Z,8.30
2019-02-19T18:06:37.417Z,8.30
2019-02-19T18:09:20.581Z,8.20
2019-02-19T18:12:02.949Z,8.20
2019-02-19T18:14:54.747Z,8.10
2019-02-19T18:17:42.994Z,8.10
2019-02-19T18:20:18.059Z,8.20
2019-02-19T18:22:48.150Z,8.20
2019-02-19T18:25:16.966Z,8.20
2019-02-19T18:27:52.676Z,8.20
2019-02-19T18:30:21.457Z,8.20
2019-02-19T18:32:50.214Z,8.20
2019-02-19T18:35:25.368Z,8.20
2019-02-19T18:37:54.170Z,8.20
2019-02-19T18:40:22.906Z,8.20
2019-02-19T18:42:57.994Z,8.10
2019-02-19T18:45:26.821Z,8.10
2019-02-19T18:47:56.676Z,8.20
2019-02-19T18:50:32.126Z,8.10
2019-02-19T18:53:14.504Z,8.10
2019-02-19T18:55:51.202Z,8.10
2019-02-19T18:58:20.183Z,8.10
2019-02-19T19:00:48.972Z,8.00
2019-02-19T19:03:24.459Z,8.10
2019-02-19T19:05:53.266Z,8.00
2019-02-19T19:08:22.040Z,8.10
2019-02-19T19:10:56.943Z,8.00
2019-02-19T19:13:25.698Z,8.10
2019-02-19T19:15:54.440Z,8.00
2019-02-19T19:18:29.754Z,8.10
2019-02-19T19:21:07.484Z,8.10
2019-02-19T19:23:29.088Z,8.00
2019-02-19T19:26:04.819Z,8.10
2019-02-19T19:28:33.655Z,8.00
2019-02-19T19:31:02.605Z,7.90
2019-02-19T19:33:37.819Z,7.70
2019-02-19T19:36:06.575Z,7.40
2019-02-19T19:38:35.433Z,7.30
2019-02-19T19:41:10.947Z,7.10
2019-02-19T19:43:39.761Z,6.50
2019-02-19T19:46:08.613Z,6.30
2019-02-19T19:48:45.941Z,6.20
2019-02-19T19:51:27.985Z,6.10
2019-02-19T19:54:10.111Z,6.10
2019-02-19T19:56:41.273Z,6.10
2019-02-19T19:59:09.985Z,6.10
2019-02-19T20:01:45.754Z,6.10
2019-02-19T20:04:14.480Z,6.00
2019-02-19T20:06:43.220Z,6.00
2019-02-19T20:09:19.031Z,5.90
2019-02-19T20:11:47.893Z,5.90
2019-02-19T20:14:16.613Z,6.00
2019-02-19T20:16:52.291Z,6.00
2019-02-19T20:19:22.222Z,5.90
2019-02-19T20:21:50.980Z,5.90
2019-02-19T20:24:33.090Z,5.70
2019-02-19T20:27:01.883Z,5.80
2019-02-19T20:29:30.852Z,5.70
2019-02-19T20:32:06.521Z,5.70
2019-02-19T20:34:35.312Z,5.70
2019-02-19T20:37:04.193Z,5.80
2019-02-19T20:39:40.208Z,5.80
2019-02-19T20:42:12.170Z,5.80
2019-02-19T20:44:41.051Z,5.70
2019-02-19T20:47:16.756Z,5.60
2019-02-19T20:50:07.320Z,5.60
2019-02-19T20:52:42.759Z,5.60
2019-02-19T20:55:21.773Z,5.60
2019-02-19T20:57:58.369Z,5.60
2019-02-19T21:00:27.222Z,5.50
2019-02-19T21:02:56.085Z,5.50
2019-02-19T21:05:31.562Z,5.40
2019-02-19T21:08:00.720Z,5.40
2019-02-19T21:10:29.537Z,5.30
2019-02-19T21:13:04.638Z,5.30
2019-02-19T21:15:33.423Z,5.30
2019-02-19T21:18:02.233Z,5.20
2019-02-19T21:20:38.171Z,5.20
2019-02-19T21:23:06.898Z,5.30
2019-02-19T21:25:35.627Z,5.20
2019-02-19T21:28:12.399Z,5.20
2019-02-19T21:30:41.170Z,5.30
2019-02-19T21:33:09.893Z,5.30
2019-02-19T21:35:45.561Z,5.30
2019-02-19T21:38:14.349Z,5.30
2019-02-19T21:40:43.445Z,5.30
2019-02-19T21:43:19.009Z,5.40
2019-02-19T21:45:47.901Z,5.30
2019-02-19T21:48:16.588Z,5.40
2019-02-19T21:50:51.881Z,5.30
2019-02-19T21:53:28.089Z,5.20
2019-02-19T21:56:10.722Z,5.30
2019-02-19T21:58:39.425Z,5.30
2019-02-19T22:01:08.149Z,5.20
2019-02-19T22:03:43.421Z,5.20
2019-02-19T22:06:13.270Z,5.10
2019-02-19T22:08:42.026Z,5.20
2019-02-19T22:11:17.223Z,5.20
2019-02-19T22:13:45.957Z,5.10
2019-02-19T22:16:14.679Z,5.00
2019-02-19T22:18:49.775Z,5.00
2019-02-19T22:21:23.844Z,5.00
2019-02-19T22:23:52.580Z,5.10
2019-02-19T22:26:27.514Z,5.20
2019-02-19T22:28:56.234Z,5.20
2019-02-19T22:31:24.965Z,5.20
2019-02-19T22:34:00.091Z,5.30
2019-02-19T22:36:28.874Z,5.20
2019-02-19T22:38:57.941Z,5.30
2019-02-19T22:41:33.729Z,5.30
2019-02-19T22:44:02.513Z,5.30
2019-02-19T22:46:31.212Z,5.30
2019-02-19T22:49:06.294Z,5.30
2019-02-19T22:51:41.127Z,5.30
2019-02-19T22:54:29.722Z,5.30
2019-02-19T22:57:05.321Z,5.40
2019-02-19T22:59:40.443Z,5.40
2019-02-19T23:02:13.800Z,5.40
2019-02-19T23:04:49.569Z,5.40
2019-02-19T23:07:18.321Z,5.40
2019-02-19T23:09:47.728Z,5.40
2019-02-19T23:12:22.978Z,5.40
2019-02-19T23:14:51.642Z,5.50
2019-02-19T23:17:20.350Z,5.50
2019-02-19T23:19:55.319Z,5.40
2019-02-19T23:22:24.054Z,5.30
2019-02-19T23:24:52.784Z,5.30
2019-02-19T23:27:28.325Z,5.30
2019-02-19T23:29:57.025Z,5.20
2019-02-19T23:32:26.184Z,5.10
2019-02-19T23:35:28.523Z,5.10
2019-02-19T23:37:58.777Z,5.10
2019-02-19T23:40:29.206Z,5.10
2019-02-19T23:43:06.271Z,5.00
2019-02-19T23:45:36.352Z,5.10
2019-02-19T23:48:06.656Z,5.20
2019-02-19T23:50:44.169Z,5.20
2019-02-19T23:53:20.408Z,5.20
2019-02-19T23:56:03.403Z,5.20
2019-02-19T23:58:39.808Z,5.20
